Waukee, Iowa
Current Conditions -  °F | °C
As of 1:54 PM on Wednesday 26 Nov 2014 (Local Time) from KDSM Reporting Station
Light Snow Light Snow  
Wind Chill: 23°   Ceiling: 800
Heat Index: 32°   Visibility: 7mi
Dew Point: 27°   Wind: 12mph
Humidity: 82%   Direction: 30°NNE
Pressure: 30.02"   Gusts: NA
Location:  41.61°N, 93.89°W
Report Text: KDSM 261954Z 03010KT 7SM -SN OVC008 00/M03 A3002 RMK AO2 SLP174 P0000 T00001028
Loading
Personal Weather Stations






























Interactive Weather Map New forecast layout! Learn more

10-Day Weather Forecast

Advertisements
Track Severe Weather on mobile